Latest Coastal Weather Observations for St Lawrence

IDQ60701

Issued at 10:51 am EST Tuesday 23 December 2014 (issued every 10 minutes, with the page automatically refreshed every 10 minutes)

About coastal observations | Map of coastal stations | Coastal observations for QLD | Marine services | Other Formats
Station Details ID: 033210 Name: ST LAWRENCE Lat: -22.35 Lon: 149.52 Height: 9.19 m
Data from the previous 72 hours. | See also: Recent months at St Lawrence
Date/Time
EST
Temp

°C
Wind Pressure Rain
since 9am
mm
Weather Cloud Vis
km
Sea
Height
m
Swell
Dir
 
Speed
knots
Gust
knots
hPa Trend Height
m
Period
s
Dir
23/10:30am 28.8 ESE 7 11 1013.6 - 0.0 - - - - - - -
23/10:00am 28.7 SE 6 12 1013.7 - 0.0 - - - - - - -
23/09:30am 27.8 SE 6 11 1013.9 - 0.0 - - - - - - -
23/09:00am 27.6 ESE 7 12 1014.0 - 0.0 - - - - - - -
23/08:30am 27.4 SE 6 10 1014.1 - 0.0 - - - - - - -
23/08:00am 26.1 SE 7 10 1014.1 - 0.0 - - - - - - -
23/07:30am 25.2 SSE 6 8 1014.0 - 0.0 - - - - - - -
23/07:00am 23.8 S 5 7 1013.9 - 0.0 - - - - - - -
23/06:30am 22.3 SSW 3 5 1013.7 - 0.0 - - - - - - -
23/06:00am 20.5 SSW 1 3 1013.7 - 0.0 - - - - - - -
23/05:30am 20.2 S 4 6 1013.3 - 0.0 - - - - - - -
23/05:00am 20.1 S 4 5 1013.0 - 0.0 - - - - - - -
23/04:30am 20.3 S 5 6 1012.9 - 0.0 - - - - - - -
23/04:00am 20.6 S 5 6 1012.7 - 0.0 - - - - - - -
23/03:30am 20.9 S 5 6 1012.9 - 0.0 - - - - - - -
23/03:00am 21.1 S 4 5 1012.9 - 0.0 - - - - - - -
23/02:30am 21.4 S 4 5 1012.9 - 0.0 - - - - - - -
23/02:00am 21.7 S 5 5 1013.0 - 0.0 - - - - - - -
23/01:30am 22.1 S 4 5 1013.1 - 0.0 - - - - - - -
23/01:00am 22.4 S 4 5 1013.3 - 0.0 - - - - - - -
23/12:30am 22.6 SSE 4 5 1013.7 - 0.0 - - - - - - -
23/12:00am 23.1 SSE 3 4 1013.9 - 0.0 - - - - - - -
 
Date/Time
EST
Temp

°C
Wind Pressure Rain
since 9am
mm
Weather Cloud Vis
km
Sea
Height
m
Swell
Dir
 
Speed
knots
Gust
knots
hPa Trend Height
m
Period
s
Dir
22/11:30pm 23.9 SE 3 5 1014.1 - 0.0 - - - - - - -
22/11:00pm 24.3 ESE 5 6 1014.3 - 0.0 - - - - - - -
22/10:30pm 24.5 ESE 3 5 1014.5 - 0.0 - - - - - - -
22/10:00pm 25.0 E 6 10 1014.4 - 0.0 - - - - - - -
22/09:30pm 25.2 E 6 11 1014.2 - 0.0 - - - - - - -
22/09:00pm 25.6 E 7 11 1014.0 - 0.0 - - - - - - -
22/08:30pm 25.9 E 6 12 1013.6 - 0.0 - - - - - - -
22/08:00pm 26.2 ENE 7 11 1013.5 - 0.0 - - - - - - -
22/07:30pm 26.7 ENE 7 11 1013.2 - 0.0 - - - - - - -
22/07:00pm 26.9 NE 6 9 1012.8 - 0.0 - - - - - - -
22/06:30pm 27.3 NE 8 12 1012.5 - 0.0 - - - - - - -
22/06:00pm 28.1 NE 10 15 1012.1 - 0.0 - - - - - - -
22/05:30pm 29.0 NE 9 14 1011.9 - 0.0 - - - - - - -
22/05:00pm 29.4 NNE 10 15 1011.6 - 0.0 - - - - - - -
22/04:30pm 29.7 NE 10 16 1011.5 - 0.0 - - - - - - -
22/04:00pm 30.3 NE 9 13 1011.4 - 0.0 - - - - - - -
22/03:30pm 30.3 NE 10 14 1011.7 - 0.0 - - - - - - -
22/03:00pm 30.2 NNE 10 14 1011.9 - 0.0 - - - - - - -
22/02:30pm 30.8 NNE 11 16 1011.9 - 0.0 - - - - - - -
22/02:00pm 31.2 NE 9 13 1012.2 - 0.0 - - - - - - -
22/01:30pm 30.4 NE 9 14 1012.6 - 0.0 - - - - - - -
22/01:00pm 30.1 NNE 8 10 1013.0 - 0.0 - - - - - - -
22/12:30pm 29.9 NE 9 14 1013.6 - 0.0 - - - - - - -
22/12:00pm 30.5 E 6 10 1014.0 - 0.0 - - - - - - -
22/11:30am 29.3 NE 8 13 1014.3 - 0.0 - - - - - - -
22/11:00am 29.3 ESE 7 12 1014.5 - 0.0 - - - - - - -
22/10:30am 29.9 E 8 11 1014.9 - 0.0 - - - - - - -
22/10:00am 28.3 ESE 7 12 1015.1 - 0.0 - - - - - - -
22/09:30am 28.1 E 8 13 1015.2 - 0.0 - - - - - - -
22/09:00am 28.2 ENE 7 15 1015.0 - 0.0 - - - - - - -
22/08:30am 26.6 ESE 6 10 1015.3 - 0.0 - - - - - - -
22/08:00am 27.2 ESE 5 10 1015.2 - 0.0 - - - - - - -
22/07:30am 26.1 ESE 5 7 1014.8 - 0.0 - - - - - - -
22/07:00am 25.4 SSE 3 5 1014.4 - 0.0 - - - - - - -
22/06:30am 23.9 S 4 6 1013.9 - 0.0 - - - - - - -
22/06:00am 22.8 SSE 4 6 1013.6 - 0.0 - - - - - - -
22/05:30am 22.0 S 5 6 1013.4 - 0.0 - - - - - - -
22/05:00am 21.8 SSE 5 6 1013.1 - 0.0 - - - - - - -
22/04:30am 22.1 S 5 6 1013.1 - 0.0 - - - - - - -
22/04:00am 22.3 S 4 5 1013.1 - 0.0 - - - - - - -
22/03:30am 22.6 S 5 6 1013.0 - 0.0 - - - - - - -
22/03:00am 22.8 SSE 5 6 1013.1 - 0.0 - - - - - - -
22/02:30am 22.8 SSE 5 6 1013.2 - 0.0 - - - - - - -
22/02:00am 22.7 S 5 7 1013.2 - 0.0 - - - - - - -
22/01:30am 22.9 S 5 7 1013.5 - 0.0 - - - - - - -
22/01:00am 23.1 S 4 5 1013.9 - 0.0 - - - - - - -
22/12:30am 23.8 SSE 5 6 1014.1 - 0.0 - - - - - - -
22/12:00am 23.9 SE 3 4 1014.4 - 0.0 - - - - - - -
 
Date/Time
EST
Temp

°C
Wind Pressure Rain
since 9am
mm
Weather Cloud Vis
km
Sea
Height
m
Swell
Dir
 
Speed
knots
Gust
knots
hPa Trend Height
m
Period
s
Dir
21/11:30pm 24.5 ESE 5 6 1014.7 - 0.0 - - - - - - -
21/11:00pm 24.5 E 3 5 1014.9 - 0.0 - - - - - - -
21/10:30pm 24.9 E 4 6 1014.8 - 0.0 - - - - - - -
21/10:00pm 25.3 E 4 7 1014.8 - 0.0 - - - - - - -
21/09:30pm 25.7 ENE 5 7 1014.5 - 0.0 - - - - - - -
21/09:00pm 25.8 ENE 6 9 1014.3 - 0.0 - - - - - - -
21/08:30pm 26.0 ENE 5 8 1014.3 - 0.0 - - - - - - -
21/08:00pm 26.2 NE 6 9 1014.0 - 0.0 - - - - - - -
21/07:30pm 26.3 NE 6 8 1013.8 - 0.0 - - - - - - -
21/07:00pm 26.8 NE 8 14 1013.4 - 0.0 - - - - - - -
21/06:30pm 27.3 NNE 8 10 1013.2 - 0.0 - - - - - - -
21/06:00pm 27.7 NE 8 11 1013.0 - 0.0 - - - - - - -
21/05:30pm 28.0 NNE 10 14 1012.6 - 0.0 - - - - - - -
21/05:00pm 28.3 NE 9 14 1012.5 - 0.0 - - - - - - -
21/04:30pm 28.5 NNE 11 15 1012.3 - 0.0 - - - - - - -
21/04:00pm 28.9 NNE 11 16 1012.3 - 0.0 - - - - - - -
21/03:30pm 29.6 NNE 11 15 1012.4 - 0.0 - - - - - - -
21/03:00pm 30.2 NE 12 16 1012.5 - 0.0 - - - - - - -
21/02:30pm 29.7 NNE 12 16 1012.9 - 0.0 - - - - - - -
21/02:00pm 29.8 NE 10 13 1013.1 - 0.0 - - - - - - -
21/01:30pm 31.1 NE 9 14 1013.4 - 0.0 - - - - - - -
21/01:00pm 30.9 NE 10 15 1013.7 - 0.0 - - - - - - -
21/12:30pm 30.8 NNE 9 15 1014.1 - 0.0 - - - - - - -
21/12:00pm 30.8 NNE 10 14 1014.4 - 0.0 - - - - - - -
21/11:30am 29.7 NE 8 12 1014.7 - 0.0 - - - - - - -
21/11:00am 29.9 NE 10 15 1014.8 - 0.0 - - - - - - -
21/10:30am 30.3 NE 9 15 1014.7 - 0.0 - - - - - - -
21/10:00am 30.2 ENE 8 14 1015.1 - 0.0 - - - - - - -
21/09:30am 28.7 ENE 8 13 1015.0 - 0.0 - - - - - - -
21/09:00am 29.0 NE 8 12 1014.9 - 0.0 - - - - - - -
21/08:30am 28.2 ENE 7 10 1014.7 - 0.0 - - - - - - -
21/08:00am 27.7 ESE 6 9 1014.6 - 0.0 - - - - - - -
21/07:30am 26.6 ESE 5 9 1014.3 - 0.0 - - - - - - -
21/07:00am 25.8 SSE 5 7 1014.0 - 0.0 - - - - - - -
21/06:30am 24.4 SSE 5 6 1013.7 - 0.0 - - - - - - -
21/06:00am 23.0 S 5 7 1013.5 - 0.0 - - - - - - -
21/05:30am 22.5 SSE 6 8 1013.2 - 0.0 - - - - - - -
21/05:00am 22.5 SSE 5 7 1012.9 - 0.0 - - - - - - -
21/04:30am 22.7 SSE 5 7 1012.5 - 0.0 - - - - - - -
21/04:00am 23.0 SSE 5 7 1012.2 - 0.0 - - - - - - -
21/03:30am 23.2 SSE 5 7 1012.3 - 0.0 - - - - - - -
21/03:00am 23.8 SSE 4 5 1012.3 - 0.0 - - - - - - -
21/02:30am 23.8 SE 3 4 1012.3 - 0.0 - - - - - - -
21/02:00am 24.2 SE 3 4 1012.3 - 0.0 - - - - - - -
21/01:30am 24.7 ESE 5 7 1012.4 - 0.0 - - - - - - -
21/01:00am 24.8 ESE 4 6 1012.7 - 0.0 - - - - - - -
21/12:30am 24.5 ESE 4 5 1013.0 - 0.0 - - - - - - -
21/12:00am 25.1 ESE 4 5 1013.4 - 0.0 - - - - - - -
 
Date/Time
EST
Temp

°C
Wind Pressure Rain
since 9am
mm
Weather Cloud Vis
km
Sea
Height
m
Swell
Dir
 
Speed
knots
Gust
knots
hPa Trend Height
m
Period
s
Dir
20/11:30pm 25.5 ENE 5 7 1013.6 - 0.0 - - - - - - -
20/11:00pm 25.4 E 4 6 1013.8 - 0.0 - - - - - - -
20/10:30pm 25.6 ENE 4 7 1013.9 - 0.0 - - - - - - -
20/10:00pm 25.7 ENE 4 5 1014.1 - 0.0 - - - - - - -
20/09:30pm 26.1 ENE 5 7 1013.9 - 0.0 - - - - - - -
20/09:00pm 26.1 ENE 3 5 1013.4 - 0.0 - - - - - - -
20/08:30pm 26.3 NE 5 6 1013.1 - 0.0 - - - - - - -
20/08:00pm 26.6 NNE 5 7 1012.6 - 0.0 - - - - - - -
20/07:30pm 26.9 NNE 7 8 1012.1 - 0.0 - - - - - - -
20/07:00pm 27.5 NNE 8 11 1011.8 - 0.0 - - - - - - -
20/06:30pm 27.9 NNE 9 13 1011.5 - 0.0 - - - - - - -
20/06:00pm 28.5 NNE 10 14 1011.1 - 0.0 - - - - - - -
20/05:30pm 28.6 NNE 11 14 1010.8 - 0.0 - - - - - - -
20/05:00pm 29.3 NNE 11 15 1010.3 - 0.0 - - - - - - -
20/04:30pm 30.0 NNE 11 16 1010.2 - 0.0 - - - - - - -
20/04:00pm 30.3 NNE 11 16 1010.0 - 0.0 - - - - - - -
20/03:30pm 30.6 NNE 12 16 1010.1 - 0.0 - - - - - - -
20/03:00pm 31.6 NE 11 15 1010.3 - 0.0 - - - - - - -
20/02:30pm 32.0 NE 10 13 1010.3 - 0.0 - - - - - - -
20/02:00pm 32.7 NE 11 14 1010.7 - 0.0 - - - - - - -
20/01:30pm 32.9 NE 9 14 1011.1 - 0.0 - - - - - - -
20/01:00pm 33.5 E 9 14 1011.2 - 0.0 - - - - - - -
20/12:30pm 34.0 ESE 9 13 1011.5 - 0.0 - - - - - - -
20/12:00pm 32.5 ENE 8 15 1011.9 - 0.0 - - - - - - -
20/11:30am 32.2 NNE 10 13 1012.1 - 0.0 - - - - - - -
20/11:00am 32.0 NE 8 13 1012.6 - 0.0 - - - - - - -

Other Formats:

Comma delimited format used in spreadsheet applications
http://www.bom.gov.au/fwo/IDQ60701/IDQ60701.95369.axf

JavaScript Object Notation format (JSON) in row-major order
http://www.bom.gov.au/fwo/IDQ60701/IDQ60701.95369.json